Mont-Joli, Canada
Current Conditions -  °F | °C
As of 4:00 AM on Saturday 20 Dec 2014 (Local Time) from CYYY Reporting Station
Broken Clouds Broken Clouds  
Wind Chill: 12°   Ceiling: 1200
Heat Index: 21°   Visibility: 15mi
Dew Point: 18°   Wind: 8mph
Humidity: 86%   Direction: 350°N
Pressure: 30.29"   Gusts: NA
Location:  48.59°N, 68.19°W
Report Text: CYYY 200900Z 35007KT 15SM BKN012 M06/M08 A3029 RMK SF7 SLP260
Loading
Personal Weather Stations






























Interactive Weather Map New forecast layout! Learn more

10-Day Weather Forecast

Advertisements
Track Severe Weather on mobile